Latest Weather Observations for Oenpelli Airport

IDD60801

Issued at 9:51 am CST Monday 16 September 2019 (issued every 10 minutes, with the page automatically refreshed every 10 minutes)

About weather observations | Map of weather stations | Latest weather observations for NT | Other Formats
Station Details ID: 014310 Name: OENPELLI AIRPORT Lat: -12.33 Lon: 133.01 Height: 7.5 m
Data from the previous 72 hours. | See also: Recent months at Oenpelli Airport
Date/Time
CST
Temp
°C
App
Temp
°C
Dew
Point
°C
Rel
Hum
%
Delta-T
°C
Wind Press
QNH
hPa
Press
MSL
hPa
Rain since
9am
mm
Dir  Spd
km/h
Gust
km/h
Spd
kts
Gust
kts
16/09:30am 25.6 25.4 14.7 51 6.5 ENE 9 15 5 8 1017.1 1017.0 0.0
16/09:00am 24.1 24.4 15.9 60 5.0 NE 9 15 5 8 1017.1 1017.0 0.0
16/08:30am 21.8 24.5 19.5 87 1.5 NNE 4 9 2 5 1017.0 1016.9 0.0
16/08:00am 18.8 21.9 18.6 99 0.1 CALM 0 0 0 0 1016.8 1016.7 0.0
16/07:30am 18.1 20.8 17.8 98 0.2 CALM 0 0 0 0 1016.5 1016.4 0.0
16/07:00am 18.2 20.6 17.9 98 0.2 N 2 4 1 2 1016.2 1016.1 0.0
16/06:30am 17.3 19.2 16.8 97 0.3 SSW 2 2 1 1 1015.7 1015.6 0.0
16/06:00am 16.9 18.9 15.9 94 0.6 CALM 0 0 0 0 1015.5 1015.4 0.0
16/05:30am 17.5 19.2 16.2 92 0.8 SW 2 4 1 2 1015.5 1015.4 0.0
16/05:00am 18.7 20.5 17.4 92 0.8 NW 4 6 2 3 1015.3 1015.2 0.0
16/04:30am 19.5 22.4 18.2 92 0.8 CALM 0 6 0 3 1015.0 1014.9 0.0
16/04:00am 18.9 21.2 17.6 92 0.8 SW 2 6 1 3 1014.7 1014.6 0.0
16/03:30am 20.1 23.1 18.4 90 1.1 CALM 0 0 0 0 1014.7 1014.6 0.0
16/03:00am 20.7 23.9 18.8 89 1.2 CALM 0 2 0 1 1014.7 1014.6 0.0
16/02:30am 21.5 24.3 18.9 85 1.6 ENE 2 4 1 2 1014.9 1014.8 0.0
16/02:00am 22.6 24.7 19.4 82 2.0 ENE 7 11 4 6 1015.0 1014.9 0.0
16/01:30am 23.1 24.0 19.3 79 2.4 ENE 13 17 7 9 1015.0 1014.9 0.0
16/01:00am 23.4 24.6 19.1 77 2.7 ENE 11 20 6 11 1015.2 1015.1 0.0
16/12:30am 23.3 24.8 19.0 77 2.7 NE 9 13 5 7 1015.4 1015.3 0.0
16/12:00am 24.1 25.4 19.4 75 3.0 ENE 11 15 6 8 1015.5 1015.4 0.0
 
Date/Time
CST
Temp
°C
App
Temp
°C
Dew
Point
°C
Rel
Hum
%
Delta-T
°C
Wind Press
QNH
hPa
Press
MSL
hPa
Rain since
9am
mm
Dir  Spd
km/h
Gust
km/h
Spd
kts
Gust
kts
15/11:30pm 23.8 25.3 18.9 74 3.1 ENE 9 13 5 7 1015.3 1015.2 0.0
15/11:00pm 23.9 25.1 19.0 74 3.1 NE 11 15 6 8 1015.1 1015.0 0.0
15/10:30pm 24.1 25.1 18.7 72 3.4 NE 11 17 6 9 1015.2 1015.1 0.0
15/10:00pm 24.4 25.2 17.4 65 4.4 NE 9 13 5 7 1015.1 1015.0 0.0
15/09:30pm 25.0 25.4 16.4 59 5.3 NE 9 13 5 7 1014.9 1014.8 0.0
15/09:00pm 25.7 25.7 16.3 56 5.8 NE 11 17 6 9 1014.6 1014.5 0.0
15/08:30pm 25.8 26.2 16.4 56 5.8 NE 9 11 5 6 1014.4 1014.3 0.0
15/08:00pm 26.5 26.9 16.4 53 6.2 NNE 9 11 5 6 1014.2 1014.1 0.0
15/07:30pm 27.1 27.5 16.4 52 6.6 NNE 9 13 5 7 1013.8 1013.7 0.0
15/07:00pm 27.6 27.5 15.9 49 7.2 NE 11 15 6 8 1013.5 1013.4 0.0
15/06:30pm 28.9 28.4 15.8 45 8.1 NNE 13 17 7 9 1013.0 1012.9 0.0
15/06:00pm 30.3 29.7 15.6 41 9.1 NNE 13 22 7 12 1012.7 1012.6 0.0
15/05:30pm 31.8 30.2 14.0 34 10.8 NE 15 20 8 11 1012.5 1012.4 0.0
15/05:00pm 32.8 31.0 13.4 30 11.7 ENE 15 24 8 13 1012.4 1012.3 0.0
15/04:30pm 32.8 31.0 13.4 30 11.7 ENE 15 22 8 12 1012.3 1012.2 0.0
15/04:00pm 32.0 30.8 12.8 31 11.4 ENE 11 19 6 10 1012.5 1012.4 0.0
15/03:30pm 33.4 31.1 12.9 28 12.3 E 17 24 9 13 1012.4 1012.3 0.0
15/03:00pm 33.5 31.1 12.5 28 12.5 NE 17 24 9 13 1012.5 1012.4 0.0
15/02:30pm 32.6 30.2 12.8 30 11.8 NE 17 30 9 16 1012.6 1012.5 0.0
15/02:00pm 31.6 28.6 12.4 31 11.4 E 20 33 11 18 1013.1 1013.0 0.0
15/01:30pm 33.0 30.3 13.6 31 11.7 ENE 20 35 11 19 1013.4 1013.3 0.0
15/01:00pm 31.8 28.4 12.6 31 11.4 E 22 35 12 19 1014.0 1013.9 0.0
15/12:30pm 30.9 27.1 12.3 32 10.9 ENE 24 35 13 19 1014.6 1014.5 0.0
15/12:00pm 31.1 28.6 13.4 34 10.6 ENE 19 33 10 18 1015.0 1014.9 0.0
15/11:30am 29.8 26.1 12.7 35 10.1 ENE 24 37 13 20 1015.5 1015.4 0.0
15/11:00am 30.0 25.6 12.9 35 10.1 ENE 28 39 15 21 1015.9 1015.8 0.0
15/10:30am 29.0 25.3 12.8 36 9.5 E 24 35 13 19 1016.4 1016.3 0.0
15/10:00am 28.1 24.0 12.8 38 9.0 E 26 37 14 20 1016.7 1016.6 0.0
15/09:30am 27.2 23.0 12.4 40 8.6 E 26 39 14 21 1016.9 1016.8 0.0
15/09:00am 26.4 22.5 12.1 41 8.2 E 24 39 13 21 1017.0 1016.9 0.0
15/08:30am 25.3 21.7 10.7 40 8.1 ENE 20 28 11 15 1017.0 1016.9 0.0
15/08:00am 24.7 22.1 10.6 41 7.8 E 15 26 8 14 1016.7 1016.6 0.0
15/07:30am 23.6 23.1 10.6 44 7.2 ESE 4 7 2 4 1016.7 1016.6 0.0
15/07:00am 22.1 21.6 10.6 48 6.3 ESE 4 7 2 4 1016.4 1016.3 0.0
15/06:30am 21.7 20.4 9.9 47 6.4 ESE 7 11 4 6 1016.1 1016.0 0.0
15/06:00am 22.3 20.3 10.1 46 6.6 ESE 11 17 6 9 1016.0 1015.9 0.0
15/05:30am 22.7 20.6 9.8 44 7.0 ESE 11 22 6 12 1015.7 1015.6 0.0
15/05:00am 22.6 20.6 10.1 45 6.8 ESE 11 17 6 9 1015.5 1015.4 0.0
15/04:30am 23.1 20.5 7.6 37 8.1 ESE 11 17 6 9 1015.1 1015.0 0.0
15/04:00am 24.6 20.9 6.4 31 9.4 SE 15 20 8 11 1015.0 1014.9 0.0
15/03:30am 24.1 21.6 9.7 40 7.9 SE 13 20 7 11 1015.0 1014.9 0.0
15/03:00am 24.4 22.3 11.0 43 7.5 ESE 13 19 7 10 1015.2 1015.1 0.0
15/02:30am 25.1 22.5 10.6 40 8.1 ESE 15 26 8 14 1015.1 1015.0 0.0
15/02:00am 25.2 23.4 12.1 44 7.5 ESE 13 20 7 11 1015.3 1015.2 0.0
15/01:30am 25.6 23.5 12.4 43 7.6 SE 15 28 8 15 1015.5 1015.4 0.0
15/01:00am 25.4 25.5 15.4 54 6.0 ESE 9 17 5 9 1015.6 1015.5 0.0
15/12:30am 25.0 25.4 16.4 59 5.3 ESE 9 17 5 9 1015.7 1015.6 0.0
15/12:00am 24.4 25.3 18.3 69 3.8 E 11 17 6 9 1015.9 1015.8 0.0
 
Date/Time
CST
Temp
°C
App
Temp
°C
Dew
Point
°C
Rel
Hum
%
Delta-T
°C
Wind Press
QNH
hPa
Press
MSL
hPa
Rain since
9am
mm
Dir  Spd
km/h
Gust
km/h
Spd
kts
Gust
kts
14/11:30pm 24.4 25.2 19.0 72 3.4 E 13 19 7 10 1015.9 1015.8 0.0
14/11:00pm 24.6 25.4 19.0 71 3.6 ENE 13 19 7 10 1015.9 1015.8 0.0
14/10:30pm 24.1 25.1 18.7 72 3.4 NE 11 22 6 12 1015.8 1015.7 0.0
14/10:00pm 24.7 25.4 18.9 70 3.7 ENE 13 19 7 10 1015.6 1015.5 0.0
14/09:30pm 24.7 26.0 18.4 68 4.0 ENE 9 15 5 8 1015.4 1015.3 0.0
14/09:00pm 25.1 25.4 18.8 68 4.0 NE 15 20 8 11 1015.3 1015.2 0.0
14/08:30pm 25.3 26.6 18.5 66 4.3 NE 9 15 5 8 1014.9 1014.8 0.0
14/08:00pm 25.4 26.7 17.6 62 4.9 NNE 7 13 4 7 1014.5 1014.4 0.0
14/07:30pm 26.7 27.2 17.5 57 5.8 NNE 11 15 6 8 1014.2 1014.1 0.0
14/07:00pm 27.4 27.8 16.4 51 6.8 NE 9 13 5 7 1013.6 1013.5 0.0
14/06:30pm 29.1 29.0 16.0 45 8.1 NNE 11 20 6 11 1013.1 1013.0 0.0
14/06:00pm 30.4 29.3 15.3 40 9.3 NNE 15 22 8 12 1012.6 1012.5 0.0
14/05:30pm 33.6 31.2 6.8 19 14.7 NE 9 13 5 7 1012.1 1012.0 0.0
14/05:00pm 33.9 31.1 7.0 19 14.8 ENE 11 19 6 10 1012.0 1011.9 0.0
14/04:30pm 34.1 30.4 6.4 18 15.1 ENE 15 24 8 13 1012.1 1012.0 0.0
14/04:00pm 34.4 31.5 6.7 18 15.2 E 11 17 6 9 1012.3 1012.2 0.0
14/03:30pm 34.7 30.9 7.7 19 15.1 ENE 17 24 9 13 1012.3 1012.2 0.0
14/03:00pm 33.5 29.9 6.7 19 14.6 E 15 28 8 15 1012.7 1012.6 0.0
14/02:30pm 33.7 30.1 6.9 19 14.7 ENE 15 22 8 12 1013.0 1012.9 0.0
14/02:00pm 34.1 30.2 7.2 19 14.8 ESE 17 28 9 15 1013.4 1013.3 0.0
14/01:30pm 33.0 29.1 7.1 20 14.2 ENE 17 26 9 14 1014.1 1014.0 0.0
14/01:00pm 32.8 28.8 8.3 22 13.7 E 19 30 10 16 1014.8 1014.7 0.0
14/12:30pm 32.6 28.0 8.1 22 13.6 ENE 22 35 12 19 1015.5 1015.4 0.0
14/12:00pm 31.8 27.9 9.3 25 12.7 E 20 33 11 18 1016.1 1016.0 0.0
14/11:30am 32.3 28.1 9.8 25 12.8 E 22 32 12 17 1016.6 1016.5 0.0
14/11:00am 31.3 27.0 9.5 26 12.3 E 22 33 12 18 1016.8 1016.7 0.0
14/10:30am 30.9 25.9 9.7 27 12.0 E 26 48 14 26 1017.3 1017.2 0.0
14/10:12am 30.1 24.7 9.6 28 11.5 ESE 28 48 15 26 1017.6 1017.5 0.0
14/10:00am 29.6 23.5 9.7 29 11.2 E 32 46 17 25 1017.7 1017.6 0.0
14/09:54am 29.6 24.3 9.7 29 11.2 E 28 46 15 25 1017.7 1017.6 0.0
14/09:30am 29.6 26.4 11.2 32 10.6 E 19 30 10 16 1017.9 1017.8 0.0
14/09:00am 28.0 23.9 10.2 33 10.0 E 22 33 12 18 1017.9 1017.8 0.0
14/08:30am 26.2 25.9 12.6 43 7.9 NE 6 9 3 5 1017.8 1017.7 0.0
14/08:00am 22.1 23.4 14.0 60 4.7 CALM 0 2 0 1 1017.8 1017.7 0.0
14/07:30am 19.3 20.1 14.8 75 2.6 NW 4 6 2 3 1017.7 1017.6 0.0
14/07:00am 17.1 17.3 12.0 72 2.8 N 2 4 1 2 1017.3 1017.2 0.0
14/06:30am 17.7 18.1 12.4 71 2.9 NNE 2 4 1 2 1016.9 1016.8 0.0
14/06:00am 18.8 18.8 12.5 67 3.5 ENE 4 6 2 3 1016.9 1016.8 0.0
14/05:30am 20.0 20.5 12.7 63 4.1 SE 2 2 1 1 1016.6 1016.5 0.0
14/05:00am 21.6 21.3 12.7 57 5.1 ESE 6 9 3 5 1016.4 1016.3 0.0
14/04:30am 21.9 21.4 12.2 54 5.5 SE 6 7 3 4 1016.2 1016.1 0.0
14/04:00am 22.6 22.1 12.8 54 5.6 ESE 7 13 4 7 1016.1 1016.0 0.0
14/03:30am 22.4 22.4 13.5 57 5.1 ESE 6 7 3 4 1015.7 1015.6 0.0
14/03:00am 23.1 22.6 13.8 55 5.4 ESE 9 15 5 8 1016.1 1016.0 0.0
14/02:30am 21.3 22.4 16.5 74 2.9 ESE 6 9 3 5 1016.3 1016.2 0.0
14/02:00am 19.9 22.0 18.0 89 1.2 ENE 4 6 2 3 1016.4 1016.3 0.0
14/01:30am 20.2 22.8 18.3 89 1.2 ENE 2 6 1 3 1016.5 1016.4 0.0
14/01:00am 20.7 23.2 17.3 81 2.1 CALM 0 0 0 0 1016.5 1016.4 0.0
14/12:30am 22.8 24.7 19.0 79 2.4 ENE 7 9 4 5 1016.6 1016.5 0.0
14/12:00am 22.9 24.4 18.9 78 2.5 ENE 9 11 5 6 1016.7 1016.6 0.0
 
Date/Time
CST
Temp
°C
App
Temp
°C
Dew
Point
°C
Rel
Hum
%
Delta-T
°C
Wind Press
QNH
hPa
Press
MSL
hPa
Rain since
9am
mm
Dir  Spd
km/h
Gust
km/h
Spd
kts
Gust
kts
13/11:30pm 23.5 24.7 19.0 76 2.9 ENE 11 17 6 9 1016.7 1016.6 0.0
13/11:00pm 24.0 25.3 19.3 75 3.0 ENE 11 19 6 10 1016.8 1016.7 0.0
13/10:30pm 24.3 25.0 18.9 72 3.4 ENE 13 17 7 9 1016.9 1016.8 0.0
13/10:00pm 24.4 24.6 17.6 66 4.2 ENE 13 19 7 10 1016.8 1016.7 0.0
13/09:30pm 24.4 24.7 16.9 63 4.6 NE 11 15 6 8 1016.4 1016.3 0.0
13/09:00pm 24.9 25.2 16.9 61 4.9 NE 11 17 6 9 1016.0 1015.9 0.0
13/08:30pm 25.1 25.1 16.3 58 5.4 NE 11 15 6 8 1015.7 1015.6 0.0
13/08:00pm 25.8 26.5 15.5 53 6.2 NE 6 9 3 5 1015.3 1015.2 0.0
13/07:30pm 27.0 27.3 15.1 48 7.2 NE 7 11 4 6 1014.7 1014.6 0.0
13/07:00pm 28.4 27.7 13.1 39 9.0 NNE 9 19 5 10 1014.1 1014.0 0.0
13/06:30pm 31.1 29.6 6.9 22 13.1 SE 4 7 2 4 1013.3 1013.2 0.0
13/06:00pm 32.9 30.5 7.0 20 14.2 ESE 9 17 5 9 1013.0 1012.9 0.0
13/05:30pm 33.4 30.5 6.6 19 14.6 SE 11 20 6 11 1012.8 1012.7 0.0
13/05:00pm 34.3 32.0 7.4 19 14.9 E 9 20 5 11 1012.6 1012.5 0.0
13/04:30pm 33.8 30.6 7.0 19 14.7 ESE 13 20 7 11 1012.7 1012.6 0.0
13/04:00pm 33.7 31.3 6.9 19 14.7 E 9 22 5 12 1012.8 1012.7 0.0
13/03:30pm 33.7 31.1 7.6 20 14.5 ESE 11 20 6 11 1012.9 1012.8 0.0
13/03:00pm 33.7 30.1 8.3 21 14.2 E 17 22 9 12 1013.2 1013.1 0.0
13/02:30pm 33.6 29.8 9.0 22 13.9 E 19 33 10 18 1013.6 1013.5 0.0
13/02:00pm 32.8 30.1 8.9 23 13.5 ESE 13 24 7 13 1014.3 1014.2 0.0
13/01:30pm 33.1 28.8 9.2 23 13.5 E 22 35 12 19 1014.9 1014.8 0.0
13/01:00pm 32.8 31.0 9.6 24 13.2 ESE 9 28 5 15 1015.5 1015.4 0.0
13/12:30pm 31.7 27.8 9.3 25 12.6 E 20 35 11 19 1016.1 1016.0 0.0
13/12:00pm 30.8 27.0 9.1 26 12.1 E 19 33 10 18 1016.8 1016.7 0.0
13/11:30am 31.0 25.8 8.7 25 12.4 ESE 26 39 14 21 1017.3 1017.2 0.0
13/11:00am 30.2 25.5 9.1 27 11.8 E 24 35 13 19 1017.8 1017.7 0.0
13/10:30am 29.9 25.2 9.4 28 11.4 ENE 24 41 13 22 1018.1 1018.0 0.0
13/10:00am 29.2 25.4 9.9 30 10.8 E 20 33 11 18 1018.7 1018.6 0.0

Other formats

Comma delimited format used in spreadsheet applications
http://www.bom.gov.au/fwo/IDD60801/IDD60801.94110.axf

JavaScript Object Notation format (JSON) in row-major order
http://www.bom.gov.au/fwo/IDD60801/IDD60801.94110.json

Data quality

Most of these data are generated automatically and are frequently updated. Quality checks on data are not normally performed. It is possible for incorrect values to appear. Refer to information at About Latest Weather Observations and please check the disclaimer before using these data.